createdAt,value
2017-03-16T00:00:25.588Z,0
2017-03-16T00:01:06.460Z,0
2017-03-16T00:01:47.346Z,0
2017-03-16T00:02:28.228Z,0
2017-03-16T00:03:09.108Z,0
2017-03-16T00:05:43.966Z,0
2017-03-16T00:06:24.846Z,0
2017-03-16T00:07:05.719Z,0
2017-03-16T00:07:46.599Z,0
2017-03-16T00:08:27.483Z,0
2017-03-16T00:09:08.477Z,0
2017-03-16T00:09:49.352Z,0
2017-03-16T00:10:30.448Z,0
2017-03-16T00:12:08.852Z,0
2017-03-16T00:12:49.729Z,0
2017-03-16T00:13:30.598Z,0
2017-03-16T00:14:11.478Z,0
2017-03-16T00:14:52.365Z,0
2017-03-16T00:15:33.252Z,0
2017-03-16T00:16:14.124Z,0
2017-03-16T00:16:55.007Z,0
2017-03-16T00:17:35.897Z,0
2017-03-16T00:18:16.786Z,0
2017-03-16T00:18:57.661Z,0
2017-03-16T00:19:38.540Z,0
2017-03-16T00:20:19.439Z,0
2017-03-16T00:21:00.319Z,0
2017-03-16T00:21:41.195Z,0
2017-03-16T00:22:22.067Z,0
2017-03-16T00:23:02.942Z,0
2017-03-16T00:23:43.835Z,0
2017-03-16T00:24:24.719Z,0
2017-03-16T00:25:05.603Z,0
2017-03-16T00:25:46.492Z,0
2017-03-16T00:26:27.382Z,0
2017-03-16T00:27:08.257Z,0
2017-03-16T00:27:49.135Z,0
2017-03-16T00:28:30.016Z,0
2017-03-16T00:29:10.915Z,0
2017-03-16T00:29:51.797Z,0
2017-03-16T00:30:32.672Z,0
2017-03-16T00:31:13.560Z,0
2017-03-16T00:31:54.451Z,0
2017-03-16T00:32:35.326Z,0
2017-03-16T00:33:16.194Z,0
2017-03-16T00:33:57.073Z,0
2017-03-16T00:34:37.979Z,0
2017-03-16T00:35:18.873Z,0
2017-03-16T00:35:59.717Z,0
2017-03-16T00:36:40.595Z,0
2017-03-16T00:37:21.472Z,0
2017-03-16T00:38:02.369Z,0
2017-03-16T00:38:43.248Z,0
2017-03-16T00:39:24.127Z,0
2017-03-16T00:40:04.995Z,0
2017-03-16T00:40:45.872Z,0
2017-03-16T00:41:26.765Z,0
2017-03-16T00:42:07.649Z,0
2017-03-16T00:42:48.504Z,0
2017-03-16T00:43:29.383Z,0
2017-03-16T00:44:10.290Z,0
2017-03-16T00:44:51.173Z,0
2017-03-16T00:45:32.050Z,0
2017-03-16T00:46:12.918Z,0
2017-03-16T00:46:53.802Z,0
2017-03-16T00:47:34.691Z,0
2017-03-16T00:48:15.568Z,0
2017-03-16T00:48:56.453Z,0
2017-03-16T00:49:37.341Z,0
2017-03-16T00:50:18.218Z,0
2017-03-16T00:50:59.088Z,0
2017-03-16T00:51:39.965Z,0
2017-03-16T00:52:20.837Z,0
2017-03-16T00:53:01.709Z,0
2017-03-16T00:53:42.591Z,0
2017-03-16T00:54:23.493Z,0
2017-03-16T00:55:04.349Z,0
2017-03-16T00:55:45.215Z,0
2017-03-16T00:56:26.093Z,0
2017-03-16T00:57:06.973Z,0
2017-03-16T00:57:47.861Z,0
2017-03-16T00:58:28.744Z,0
2017-03-16T00:59:09.627Z,0
2017-03-16T00:59:50.512Z,0
2017-03-16T01:00:31.423Z,0
2017-03-16T01:01:12.292Z,0
2017-03-16T01:01:53.175Z,0
2017-03-16T01:02:34.066Z,0
2017-03-16T01:03:14.951Z,0
2017-03-16T01:03:55.849Z,0
2017-03-16T01:04:36.708Z,0
2017-03-16T01:05:17.613Z,0
2017-03-16T01:05:58.494Z,0
2017-03-16T01:06:39.373Z,0
2017-03-16T01:07:20.252Z,0
2017-03-16T01:08:01.140Z,0
2017-03-16T01:08:42.023Z,0
2017-03-16T01:09:22.901Z,0
2017-03-16T01:10:03.774Z,0
2017-03-16T01:10:44.651Z,0
2017-03-16T01:11:25.538Z,0
2017-03-16T01:12:06.421Z,0
2017-03-16T01:12:47.299Z,0
2017-03-16T01:13:28.184Z,0
2017-03-16T01:14:09.106Z,0
2017-03-16T01:14:49.954Z,0
2017-03-16T01:15:30.863Z,0
2017-03-16T01:17:40.176Z,0
2017-03-16T01:18:21.075Z,0
2017-03-16T01:19:01.966Z,0
2017-03-16T01:19:44.910Z,0
2017-03-16T01:20:25.790Z,0
2017-03-16T01:21:06.670Z,0
2017-03-16T01:21:47.553Z,0
2017-03-16T01:22:28.430Z,0
2017-03-16T01:23:09.527Z,0
2017-03-16T01:23:50.411Z,0
2017-03-16T01:24:31.293Z,0
2017-03-16T01:25:12.170Z,0
2017-03-16T01:25:53.052Z,0
2017-03-16T01:26:33.940Z,0
2017-03-16T01:27:14.821Z,0
2017-03-16T01:27:55.702Z,0
2017-03-16T01:28:36.590Z,0
2017-03-16T01:29:17.478Z,0
2017-03-16T01:29:58.356Z,0
2017-03-16T01:30:39.248Z,0
2017-03-16T01:31:20.121Z,0
2017-03-16T01:32:01.007Z,0
2017-03-16T01:32:41.870Z,0
2017-03-16T01:33:22.743Z,0
2017-03-16T01:34:03.610Z,0
2017-03-16T01:34:44.504Z,0
2017-03-16T01:35:25.375Z,0
2017-03-16T01:36:06.260Z,0
2017-03-16T01:36:47.138Z,0
2017-03-16T01:37:28.020Z,0
2017-03-16T01:38:08.893Z,0
2017-03-16T01:38:49.776Z,0
2017-03-16T01:39:30.646Z,0
2017-03-16T01:40:11.519Z,0
2017-03-16T01:40:52.394Z,0
2017-03-16T01:41:33.271Z,0
2017-03-16T01:42:14.156Z,0
2017-03-16T01:42:55.040Z,0
2017-03-16T01:43:35.943Z,0
2017-03-16T01:44:16.829Z,0
2017-03-16T01:44:57.753Z,0
2017-03-16T01:45:38.852Z,0
2017-03-16T01:46:19.733Z,0
2017-03-16T01:47:00.626Z,0
2017-03-16T01:47:41.493Z,0
2017-03-16T01:48:22.382Z,0
2017-03-16T01:49:03.261Z,0
2017-03-16T01:49:44.130Z,0
2017-03-16T01:50:25.013Z,0
2017-03-16T01:51:05.916Z,0
2017-03-16T01:51:46.803Z,0
2017-03-16T01:52:27.677Z,0
2017-03-16T01:53:08.561Z,0
2017-03-16T01:53:49.433Z,0
2017-03-16T01:54:30.328Z,0
2017-03-16T01:55:11.201Z,0
2017-03-16T01:55:52.151Z,0
2017-03-16T01:56:33.021Z,0
2017-03-16T01:57:13.892Z,0
2017-03-16T01:57:54.773Z,0
2017-03-16T01:58:35.665Z,0
2017-03-16T01:59:16.549Z,0
2017-03-16T01:59:57.425Z,0
2017-03-16T02:00:38.315Z,0
2017-03-16T02:01:19.199Z,0
2017-03-16T02:02:00.078Z,0
2017-03-16T02:02:40.956Z,0
2017-03-16T02:03:21.840Z,0
2017-03-16T02:04:02.733Z,0
2017-03-16T02:04:43.613Z,0
2017-03-16T02:05:24.487Z,0
2017-03-16T02:06:05.368Z,0
2017-03-16T02:06:46.250Z,0
2017-03-16T02:07:27.137Z,0
2017-03-16T02:08:08.000Z,0
2017-03-16T02:08:48.900Z,0
2017-03-16T02:09:29.775Z,0
2017-03-16T02:10:10.648Z,0
2017-03-16T02:10:51.531Z,0
2017-03-16T02:11:32.410Z,0
2017-03-16T02:12:13.299Z,0
2017-03-16T02:12:54.180Z,0
2017-03-16T02:13:35.095Z,0
2017-03-16T02:14:15.978Z,0
2017-03-16T02:14:56.854Z,0
2017-03-16T02:15:37.733Z,0
2017-03-16T02:16:18.614Z,0
2017-03-16T02:16:59.491Z,0
2017-03-16T02:17:40.372Z,0
2017-03-16T02:18:21.272Z,0
2017-03-16T02:19:02.142Z,0
2017-03-16T02:19:43.023Z,0
2017-03-16T02:20:23.903Z,0
2017-03-16T02:21:04.775Z,0
2017-03-16T02:21:45.646Z,0
2017-03-16T02:22:26.533Z,0
2017-03-16T02:23:07.416Z,0
2017-03-16T02:23:48.302Z,0
2017-03-16T02:24:29.178Z,0
2017-03-16T02:25:10.054Z,0
2017-03-16T02:25:50.937Z,0
2017-03-16T02:26:31.826Z,0
2017-03-16T02:27:12.716Z,0
2017-03-16T02:27:53.587Z,0
2017-03-16T02:28:34.453Z,0
2017-03-16T02:29:15.344Z,0
2017-03-16T02:29:56.232Z,0
2017-03-16T02:30:37.115Z,0
2017-03-16T02:31:17.998Z,0
2017-03-16T02:31:58.906Z,0
2017-03-16T02:32:39.784Z,0
2017-03-16T02:33:20.662Z,0
2017-03-16T02:34:01.540Z,0
2017-03-16T02:34:42.666Z,0
2017-03-16T02:35:23.544Z,0
2017-03-16T02:36:04.453Z,0
2017-03-16T02:36:45.340Z,0
2017-03-16T02:37:26.299Z,0
2017-03-16T02:38:07.181Z,0
2017-03-16T02:38:48.111Z,0
2017-03-16T02:39:28.993Z,0
2017-03-16T02:40:09.884Z,0
2017-03-16T02:40:50.762Z,0
2017-03-16T02:41:31.650Z,0
2017-03-16T02:42:12.540Z,0
2017-03-16T02:42:53.424Z,0
2017-03-16T02:43:34.304Z,0
2017-03-16T02:44:15.184Z,0
2017-03-16T02:44:56.114Z,0
2017-03-16T02:45:36.998Z,0
2017-03-16T02:46:17.877Z,0
2017-03-16T02:46:58.785Z,0
2017-03-16T02:47:39.648Z,0
2017-03-16T02:48:20.536Z,0
2017-03-16T02:49:01.416Z,0
2017-03-16T02:49:42.296Z,0
2017-03-16T02:50:23.184Z,0
2017-03-16T02:51:04.065Z,0
2017-03-16T02:51:44.948Z,0
2017-03-16T02:52:25.830Z,0
2017-03-16T02:53:06.719Z,0
2017-03-16T02:53:47.600Z,0
2017-03-16T02:54:28.481Z,0
2017-03-16T02:55:09.357Z,0
2017-03-16T02:55:50.248Z,0
2017-03-16T02:56:31.134Z,0
2017-03-16T02:57:12.112Z,0
2017-03-16T02:57:53.025Z,0
2017-03-16T02:58:33.914Z,0
2017-03-16T02:59:14.783Z,0
2017-03-16T02:59:55.663Z,0
2017-03-16T03:00:36.556Z,0
2017-03-16T03:01:17.433Z,0
2017-03-16T03:01:58.311Z,0
2017-03-16T03:02:39.191Z,0
2017-03-16T03:03:20.066Z,0
2017-03-16T03:04:00.943Z,0
2017-03-16T03:04:41.832Z,0
2017-03-16T03:05:22.711Z,0
2017-03-16T03:06:03.591Z,0
2017-03-16T03:06:44.477Z,0
2017-03-16T03:07:25.368Z,0
2017-03-16T03:08:06.244Z,0
2017-03-16T03:08:47.133Z,0
2017-03-16T03:09:28.009Z,0
2017-03-16T03:10:08.903Z,0
2017-03-16T03:10:49.781Z,0
2017-03-16T03:11:30.663Z,0
2017-03-16T03:12:11.548Z,0
2017-03-16T03:12:52.428Z,0
2017-03-16T03:13:33.308Z,0
2017-03-16T03:14:14.174Z,0
2017-03-16T03:14:55.057Z,0
2017-03-16T03:15:35.925Z,0
2017-03-16T03:16:16.816Z,0
2017-03-16T03:16:57.701Z,0
2017-03-16T03:17:38.583Z,0
2017-03-16T03:18:19.467Z,0
2017-03-16T03:19:00.354Z,0
2017-03-16T03:19:41.218Z,0
2017-03-16T03:20:22.098Z,0
2017-03-16T03:21:02.979Z,0
2017-03-16T03:21:43.868Z,0
2017-03-16T03:22:24.743Z,0
2017-03-16T03:23:05.623Z,0
2017-03-16T03:23:46.539Z,0
2017-03-16T03:24:27.426Z,0
2017-03-16T03:25:08.305Z,0
2017-03-16T03:25:49.194Z,0
2017-03-16T03:26:30.083Z,0
2017-03-16T03:27:10.969Z,0
2017-03-16T03:27:51.841Z,0
2017-03-16T03:28:32.710Z,0
2017-03-16T03:29:13.584Z,0
2017-03-16T03:29:54.471Z,0
2017-03-16T03:30:35.360Z,0
2017-03-16T03:31:16.235Z,0
2017-03-16T03:31:57.110Z,0
2017-03-16T03:32:37.997Z,0
2017-03-16T03:33:18.896Z,0
2017-03-16T03:33:59.765Z,0
2017-03-16T03:34:40.636Z,0
2017-03-16T03:35:21.499Z,0
2017-03-16T03:36:02.388Z,0
2017-03-16T03:36:43.287Z,0
2017-03-16T03:37:24.157Z,0
2017-03-16T03:38:05.036Z,0
2017-03-16T03:38:45.923Z,0
2017-03-16T03:39:26.808Z,0
2017-03-16T03:40:07.692Z,0
2017-03-16T03:40:48.568Z,0
2017-03-16T03:41:29.451Z,0
2017-03-16T03:42:10.337Z,0
2017-03-16T03:42:51.212Z,0
2017-03-16T03:43:32.097Z,0
2017-03-16T03:44:12.979Z,0
2017-03-16T03:44:53.869Z,0
2017-03-16T03:45:34.750Z,0
2017-03-16T03:46:15.614Z,0
2017-03-16T03:46:56.495Z,0
2017-03-16T03:47:37.380Z,0
2017-03-16T03:48:18.266Z,0
2017-03-16T03:48:59.144Z,0
2017-03-16T03:49:40.003Z,0
2017-03-16T03:50:20.879Z,0
2017-03-16T03:51:01.769Z,0
2017-03-16T03:51:42.656Z,0
2017-03-16T03:52:23.536Z,0
2017-03-16T03:53:04.413Z,0
2017-03-16T03:53:45.297Z,0
2017-03-16T03:54:26.192Z,0
2017-03-16T03:55:07.075Z,0
2017-03-16T03:55:47.950Z,0
2017-03-16T03:56:28.831Z,0
2017-03-16T03:57:09.722Z,0
2017-03-16T03:57:50.605Z,0
2017-03-16T03:58:31.482Z,0
2017-03-16T03:59:12.371Z,0
2017-03-16T03:59:53.282Z,0
2017-03-16T04:00:34.141Z,0
2017-03-16T04:01:15.018Z,0
2017-03-16T04:01:55.902Z,0
2017-03-16T04:02:36.815Z,0
2017-03-16T04:03:17.697Z,0
2017-03-16T04:03:58.577Z,0
2017-03-16T04:04:39.469Z,0
2017-03-16T04:05:20.352Z,0
2017-03-16T04:06:01.229Z,0
2017-03-16T04:06:42.105Z,0
2017-03-16T04:07:22.992Z,0
2017-03-16T04:08:03.870Z,0
2017-03-16T04:08:44.750Z,0
2017-03-16T04:09:25.631Z,0
2017-03-16T04:10:06.526Z,0
2017-03-16T04:10:47.412Z,0
2017-03-16T04:11:28.294Z,0
2017-03-16T04:12:09.180Z,0
2017-03-16T04:12:50.086Z,0
2017-03-16T04:13:30.969Z,0
2017-03-16T04:14:11.836Z,0
2017-03-16T04:14:52.721Z,0
2017-03-16T04:15:33.608Z,0
2017-03-16T04:16:14.487Z,0
2017-03-16T04:16:55.363Z,0
2017-03-16T04:17:36.250Z,0
2017-03-16T04:18:17.146Z,0
2017-03-16T04:18:58.031Z,0
2017-03-16T04:19:38.916Z,0
2017-03-16T04:20:19.799Z,0
2017-03-16T04:21:00.961Z,0
2017-03-16T04:22:39.329Z,0
2017-03-16T04:23:20.196Z,0
2017-03-16T04:24:01.077Z,0
2017-03-16T04:24:41.965Z,0
2017-03-16T04:25:22.852Z,0
2017-03-16T04:26:03.730Z,0
2017-03-16T04:26:44.619Z,0
2017-03-16T04:27:25.501Z,0
2017-03-16T04:28:06.381Z,0
2017-03-16T04:28:47.257Z,0
2017-03-16T04:29:28.141Z,0
2017-03-16T04:30:09.022Z,0
2017-03-16T04:30:49.905Z,0
2017-03-16T04:31:30.776Z,0
2017-03-16T04:32:11.649Z,0
2017-03-16T04:32:52.517Z,0
2017-03-16T04:33:33.401Z,0
2017-03-16T04:34:14.286Z,0
2017-03-16T04:34:55.185Z,0
2017-03-16T04:35:36.068Z,0
2017-03-16T04:36:16.954Z,0
2017-03-16T04:36:57.836Z,0
2017-03-16T04:37:38.719Z,0
2017-03-16T04:38:19.603Z,0
2017-03-16T04:39:00.491Z,0
2017-03-16T04:39:41.402Z,0
2017-03-16T04:40:22.281Z,0
2017-03-16T04:41:03.166Z,0
2017-03-16T04:41:44.048Z,0
2017-03-16T04:42:24.935Z,0
2017-03-16T04:43:05.822Z,4
2017-03-16T04:43:46.704Z,4
2017-03-16T04:44:27.587Z,4
2017-03-16T04:45:08.474Z,4
2017-03-16T04:45:49.344Z,4
2017-03-16T04:46:30.231Z,4
2017-03-16T04:47:11.111Z,0
2017-03-16T04:47:51.991Z,0
2017-03-16T04:48:32.870Z,0
2017-03-16T04:49:13.754Z,4
2017-03-16T04:49:54.631Z,4
2017-03-16T04:50:35.509Z,4
2017-03-16T04:51:16.401Z,4
2017-03-16T04:51:57.284Z,8
2017-03-16T04:52:38.161Z,4
2017-03-16T04:53:19.044Z,4
2017-03-16T04:53:59.930Z,8
2017-03-16T04:54:40.789Z,4
2017-03-16T04:55:21.676Z,8
2017-03-16T04:56:02.560Z,8
2017-03-16T04:56:43.434Z,12
2017-03-16T04:57:24.322Z,12
2017-03-16T04:58:05.206Z,12
2017-03-16T04:58:46.095Z,12
2017-03-16T04:59:26.976Z,12
2017-03-16T05:00:07.833Z,16
2017-03-16T05:00:48.714Z,16
2017-03-16T05:01:29.607Z,20
2017-03-16T05:02:10.471Z,24
2017-03-16T05:02:51.351Z,24
2017-03-16T05:03:32.241Z,24
2017-03-16T05:04:13.131Z,32
2017-03-16T05:04:54.016Z,32
2017-03-16T05:05:34.899Z,36
2017-03-16T05:06:15.775Z,40
2017-03-16T05:06:56.653Z,40
2017-03-16T05:07:37.525Z,48
2017-03-16T05:08:18.423Z,52
2017-03-16T05:08:59.309Z,56
2017-03-16T05:09:40.190Z,60
2017-03-16T05:10:21.073Z,64
2017-03-16T05:11:01.965Z,68
2017-03-16T05:11:42.848Z,76
2017-03-16T05:12:23.731Z,80
2017-03-16T05:13:04.613Z,88
2017-03-16T05:13:45.498Z,92
2017-03-16T05:14:26.377Z,100
2017-03-16T05:15:07.263Z,108
2017-03-16T05:15:48.145Z,116
2017-03-16T05:16:29.026Z,120
2017-03-16T05:17:09.913Z,132
2017-03-16T05:17:50.797Z,140
2017-03-16T05:18:31.676Z,152
2017-03-16T05:19:12.568Z,164
2017-03-16T05:19:53.447Z,172
2017-03-16T05:20:34.325Z,184
2017-03-16T05:21:15.208Z,196
2017-03-16T05:21:56.105Z,212
2017-03-16T05:22:37.010Z,220
2017-03-16T05:23:17.866Z,236
2017-03-16T05:23:58.742Z,248
2017-03-16T05:24:39.636Z,264
2017-03-16T05:25:20.518Z,276
2017-03-16T05:26:01.392Z,292
2017-03-16T05:26:42.279Z,308
2017-03-16T05:27:23.162Z,324
2017-03-16T05:28:04.060Z,344
2017-03-16T05:28:44.946Z,360
2017-03-16T05:29:25.832Z,380
2017-03-16T05:30:06.719Z,400
2017-03-16T05:30:47.598Z,420
2017-03-16T05:31:28.464Z,444
2017-03-16T05:32:09.343Z,468
2017-03-16T05:32:50.229Z,496
2017-03-16T05:33:31.116Z,520
2017-03-16T05:34:12.022Z,544
2017-03-16T05:34:52.878Z,572
2017-03-16T05:35:33.741Z,612
2017-03-16T05:36:14.623Z,656
2017-03-16T05:36:55.503Z,688
2017-03-16T05:37:36.377Z,704
2017-03-16T05:38:17.246Z,724
2017-03-16T05:38:58.125Z,740
2017-03-16T05:39:39.002Z,776
2017-03-16T05:40:19.890Z,828
2017-03-16T05:41:00.760Z,876
2017-03-16T05:41:41.640Z,904
2017-03-16T05:42:22.520Z,920
2017-03-16T05:43:03.404Z,928
2017-03-16T05:43:44.283Z,932
2017-03-16T05:44:25.166Z,940
2017-03-16T05:45:06.049Z,968
2017-03-16T05:45:46.922Z,1012
2017-03-16T05:46:27.806Z,1060
2017-03-16T05:47:08.678Z,1104
2017-03-16T05:47:49.561Z,1144
2017-03-16T05:48:30.443Z,1176
2017-03-16T05:49:11.329Z,1224
2017-03-16T05:49:52.213Z,1260
2017-03-16T05:50:33.090Z,1304
2017-03-16T05:51:13.957Z,1332
2017-03-16T05:51:54.828Z,1368
2017-03-16T05:52:35.709Z,1408
2017-03-16T05:53:16.599Z,1444
2017-03-16T05:53:57.480Z,1492
2017-03-16T05:54:38.356Z,1524
2017-03-16T05:55:19.239Z,1544
2017-03-16T05:56:00.122Z,1592
2017-03-16T05:56:41.001Z,1680
2017-03-16T05:57:21.881Z,1720
2017-03-16T05:58:02.763Z,1756
2017-03-16T05:58:43.639Z,1780
2017-03-16T05:59:24.529Z,1732
2017-03-16T06:00:05.413Z,1632
2017-03-16T06:00:46.287Z,1548
2017-03-16T06:01:27.171Z,1464
2017-03-16T06:02:08.068Z,1396
2017-03-16T06:02:48.957Z,1392
2017-03-16T06:03:29.824Z,1420
2017-03-16T06:04:10.706Z,1484
2017-03-16T06:04:51.600Z,1536
2017-03-16T06:05:32.479Z,1584
2017-03-16T06:06:13.357Z,1620
2017-03-16T06:06:54.234Z,1664
2017-03-16T06:07:35.123Z,1780
2017-03-16T06:08:16.007Z,2052
2017-03-16T06:08:56.880Z,2288
2017-03-16T06:09:37.754Z,2472
2017-03-16T06:10:18.627Z,2540
2017-03-16T06:10:59.520Z,2512
2017-03-16T06:11:40.395Z,2472
2017-03-16T06:12:21.270Z,2480
2017-03-16T06:13:02.145Z,2432
2017-03-16T06:13:43.018Z,2304
2017-03-16T06:14:23.904Z,2148
2017-03-16T06:15:04.786Z,2036
2017-03-16T06:15:45.667Z,2012
2017-03-16T06:16:26.545Z,2040
2017-03-16T06:17:07.426Z,2100
2017-03-16T06:17:48.319Z,2256
2017-03-16T06:18:29.198Z,2328
2017-03-16T06:19:10.074Z,2372
2017-03-16T06:19:50.946Z,2352
2017-03-16T06:20:31.831Z,2264
2017-03-16T06:21:12.716Z,2104
2017-03-16T06:21:53.590Z,1992
2017-03-16T06:22:34.476Z,1976
2017-03-16T06:23:15.367Z,2072
2017-03-16T06:23:56.250Z,2156
2017-03-16T06:24:37.186Z,2176
2017-03-16T06:25:18.076Z,2180
2017-03-16T06:25:58.949Z,2312
2017-03-16T06:26:39.828Z,2552
2017-03-16T06:27:20.719Z,2720
2017-03-16T06:28:01.605Z,2828
2017-03-16T06:28:42.483Z,2932
2017-03-16T06:29:23.370Z,2992
2017-03-16T06:30:04.256Z,3112
2017-03-16T06:30:45.141Z,3216
2017-03-16T06:31:26.016Z,3260
2017-03-16T06:32:06.896Z,3300
2017-03-16T06:32:47.783Z,3316
2017-03-16T06:33:28.672Z,3324
2017-03-16T06:34:09.554Z,3188
2017-03-16T06:36:03.201Z,2604
2017-03-16T06:36:44.075Z,2412
2017-03-16T06:37:24.962Z,2248
2017-03-16T06:38:05.853Z,2184
2017-03-16T06:38:46.740Z,2204
2017-03-16T06:39:27.617Z,2244
2017-03-16T06:40:08.512Z,2232
2017-03-16T06:40:49.409Z,2220
2017-03-16T06:41:30.280Z,2308
2017-03-16T06:42:11.167Z,2396
2017-03-16T06:42:52.048Z,2440
2017-03-16T06:43:32.934Z,2444
2017-03-16T06:44:13.813Z,2412
2017-03-16T06:44:54.722Z,2520
2017-03-16T06:45:35.613Z,2592
2017-03-16T06:46:16.488Z,2488
2017-03-16T06:46:57.361Z,2320
2017-03-16T06:47:38.236Z,2276
2017-03-16T06:48:19.113Z,2320
2017-03-16T06:48:59.996Z,2388
2017-03-16T06:49:40.877Z,2728
2017-03-16T06:50:21.757Z,3672
2017-03-16T06:51:02.627Z,4588
2017-03-16T06:51:43.507Z,5344
2017-03-16T06:52:24.395Z,6284
2017-03-16T06:53:05.273Z,7072
2017-03-16T06:53:46.162Z,7308
2017-03-16T06:54:27.036Z,7216
2017-03-16T06:55:07.921Z,7056
2017-03-16T06:55:48.804Z,7184
2017-03-16T06:56:29.688Z,7256
2017-03-16T06:57:10.565Z,7008
2017-03-16T06:57:51.456Z,6700
2017-03-16T06:58:32.338Z,6708
2017-03-16T06:59:13.197Z,6836
2017-03-16T06:59:54.081Z,6868
2017-03-16T07:00:37.927Z,6832
2017-03-16T07:01:18.808Z,7004
2017-03-16T07:01:59.686Z,7192
2017-03-16T07:02:40.562Z,7284
2017-03-16T07:03:21.432Z,7500
2017-03-16T07:04:02.320Z,7588
2017-03-16T07:04:43.205Z,7456
2017-03-16T07:05:24.083Z,7684
2017-03-16T07:06:04.964Z,7984
2017-03-16T07:06:45.857Z,8196
2017-03-16T07:07:26.752Z,8192
2017-03-16T07:08:07.637Z,7972
2017-03-16T07:08:48.499Z,7832
2017-03-16T07:09:29.387Z,7900
2017-03-16T07:10:10.272Z,7916
2017-03-16T07:10:51.150Z,7796
2017-03-16T07:11:32.025Z,7820
2017-03-16T07:12:12.897Z,7808
2017-03-16T07:12:53.784Z,7824
2017-03-16T07:13:34.666Z,7928
2017-03-16T07:14:15.557Z,7928
2017-03-16T07:14:56.438Z,7716
2017-03-16T07:15:37.321Z,7524
2017-03-16T07:16:18.214Z,7456
2017-03-16T07:16:59.097Z,7328
2017-03-16T07:17:39.990Z,7368
2017-03-16T07:18:20.875Z,8024
2017-03-16T07:19:01.762Z,8804
2017-03-16T07:19:42.638Z,8840
2017-03-16T07:20:23.501Z,8440
2017-03-16T07:21:04.386Z,8184
2017-03-16T07:21:45.267Z,8212
2017-03-16T07:22:26.161Z,8356
2017-03-16T07:23:07.042Z,8520
2017-03-16T07:23:47.933Z,8944
2017-03-16T07:24:28.818Z,9064
2017-03-16T07:25:09.682Z,8864
2017-03-16T07:25:50.566Z,8712
2017-03-16T07:26:31.454Z,8692
2017-03-16T07:27:12.336Z,8464
2017-03-16T07:27:53.217Z,8296
2017-03-16T07:28:34.101Z,7900
2017-03-16T07:29:14.986Z,7312
2017-03-16T07:29:55.876Z,6664
2017-03-16T07:30:36.750Z,6248
2017-03-16T07:31:17.622Z,6320
2017-03-16T07:31:58.507Z,7196
2017-03-16T07:32:39.392Z,7812
2017-03-16T07:33:20.291Z,8228
2017-03-16T07:34:01.170Z,9180
2017-03-16T07:34:42.061Z,9944
2017-03-16T07:35:22.945Z,10340
2017-03-16T07:36:03.840Z,10640
2017-03-16T07:36:44.697Z,10756
2017-03-16T07:37:25.578Z,11092
2017-03-16T07:38:06.466Z,11408
2017-03-16T07:38:47.355Z,11416
2017-03-16T07:39:28.224Z,11520
2017-03-16T07:40:09.100Z,11488
2017-03-16T07:40:49.987Z,11164
2017-03-16T07:41:30.876Z,10988
2017-03-16T07:42:11.758Z,11004
2017-03-16T07:42:52.640Z,11008
2017-03-16T07:43:33.532Z,11268
2017-03-16T07:44:14.410Z,11240
2017-03-16T07:44:55.287Z,11032
2017-03-16T07:45:36.173Z,11012
2017-03-16T07:46:17.057Z,11172
2017-03-16T07:46:57.933Z,11616
2017-03-16T07:47:38.809Z,12080
2017-03-16T07:48:19.699Z,12496
2017-03-16T07:49:00.591Z,12436
2017-03-16T07:49:41.479Z,12140
2017-03-16T07:50:22.361Z,11460
2017-03-16T07:51:03.242Z,10376
2017-03-16T07:51:44.129Z,9164
2017-03-16T07:52:25.014Z,8304
2017-03-16T07:53:05.901Z,8932
2017-03-16T07:53:46.801Z,10396
2017-03-16T07:54:27.669Z,12288
2017-03-16T07:55:08.563Z,13384
2017-03-16T07:55:49.441Z,13344
2017-03-16T07:56:30.336Z,13444
2017-03-16T07:57:11.222Z,13604
2017-03-16T07:57:52.107Z,13276
2017-03-16T07:58:32.983Z,12184
2017-03-16T07:59:13.866Z,11064
2017-03-16T07:59:54.753Z,10996
2017-03-16T08:00:35.639Z,11512
2017-03-16T08:01:16.547Z,12288
2017-03-16T08:01:57.434Z,12680
2017-03-16T08:02:38.318Z,12884
2017-03-16T08:03:19.198Z,12916
2017-03-16T08:04:00.180Z,12748
2017-03-16T08:04:41.068Z,13348
2017-03-16T08:05:21.962Z,14528
2017-03-16T08:06:02.855Z,14572
2017-03-16T08:06:43.743Z,13136
2017-03-16T08:07:24.623Z,11108
2017-03-16T08:08:05.510Z,9684
2017-03-16T08:08:46.400Z,8876
2017-03-16T08:09:27.285Z,8580
2017-03-16T08:10:08.156Z,8392
2017-03-16T08:10:49.041Z,8184
2017-03-16T08:11:29.926Z,7860
2017-03-16T08:12:10.811Z,7460
2017-03-16T08:12:51.679Z,7656
2017-03-16T08:13:32.571Z,8440
2017-03-16T08:14:13.459Z,9720
2017-03-16T08:14:54.331Z,11336
2017-03-16T08:15:35.201Z,12068
2017-03-16T08:16:16.129Z,11984
2017-03-16T08:16:57.016Z,11888
2017-03-16T08:17:37.898Z,11624
2017-03-16T08:18:18.782Z,10444
2017-03-16T08:18:59.654Z,9424
2017-03-16T08:19:40.546Z,8012
2017-03-16T08:20:21.462Z,7684
2017-03-16T08:21:02.361Z,8272
2017-03-16T08:21:43.241Z,8660
2017-03-16T08:22:24.160Z,8828
2017-03-16T08:23:05.037Z,9004
2017-03-16T08:23:45.925Z,9072
2017-03-16T08:24:26.810Z,9476
2017-03-16T08:25:07.710Z,9908
2017-03-16T08:25:48.581Z,10276
2017-03-16T08:26:29.455Z,9644
2017-03-16T08:27:10.347Z,8468
2017-03-16T08:27:51.237Z,7452
2017-03-16T08:28:32.140Z,6996
2017-03-16T08:29:13.026Z,6776
2017-03-16T08:29:53.909Z,6508
2017-03-16T08:30:34.789Z,6464
2017-03-16T08:31:15.666Z,6392
2017-03-16T08:31:56.557Z,6336
2017-03-16T08:32:37.442Z,6220
2017-03-16T08:33:18.333Z,6600
2017-03-16T08:33:59.242Z,7800
2017-03-16T08:34:40.167Z,9040
2017-03-16T08:35:21.043Z,10656
2017-03-16T08:36:01.930Z,12892
2017-03-16T08:36:42.813Z,14816
2017-03-16T08:37:23.694Z,13680
2017-03-16T08:38:04.571Z,15968
2017-03-16T08:38:45.459Z,17664
2017-03-16T08:39:26.344Z,21920
2017-03-16T08:40:07.233Z,17696
2017-03-16T08:40:48.111Z,14052
2017-03-16T08:41:28.989Z,14472
2017-03-16T08:42:09.876Z,15220
2017-03-16T08:42:50.778Z,15920
2017-03-16T08:43:31.666Z,16736
2017-03-16T08:44:12.550Z,14724
2017-03-16T08:44:53.427Z,15840
2017-03-16T08:45:34.302Z,13612
2017-03-16T08:46:15.180Z,12624
2017-03-16T08:46:56.075Z,13036
2017-03-16T08:47:36.956Z,13900
2017-03-16T08:48:17.837Z,16304
2017-03-16T08:48:58.728Z,16992
2017-03-16T08:49:39.616Z,17408
2017-03-16T08:50:20.503Z,21280
2017-03-16T08:51:01.395Z,21824
2017-03-16T08:51:42.286Z,26560
2017-03-16T08:52:23.167Z,21120
2017-03-16T08:53:04.059Z,22048
2017-03-16T08:53:44.953Z,23616
2017-03-16T08:54:25.837Z,26112
2017-03-16T08:55:06.720Z,25056
2017-03-16T08:55:47.607Z,25696
2017-03-16T08:56:28.501Z,24928
2017-03-16T08:57:09.373Z,18272
2017-03-16T08:57:50.259Z,15852
2017-03-16T08:58:31.175Z,17728
2017-03-16T08:59:12.062Z,18912
2017-03-16T08:59:52.945Z,18112
2017-03-16T09:00:33.835Z,26048
2017-03-16T09:01:14.713Z,21856
2017-03-16T09:01:55.596Z,22432
2017-03-16T09:02:36.489Z,20544
2017-03-16T09:03:17.371Z,20864
2017-03-16T09:03:58.254Z,19744
2017-03-16T09:04:39.138Z,22752
2017-03-16T09:05:20.026Z,18688
2017-03-16T09:06:00.914Z,21248
2017-03-16T09:06:41.801Z,21120
2017-03-16T09:07:22.685Z,20768
2017-03-16T09:08:03.578Z,21312
2017-03-16T09:08:44.484Z,20416
2017-03-16T09:09:25.374Z,19712
2017-03-16T09:10:06.254Z,18496
2017-03-16T09:10:47.138Z,18176
2017-03-16T09:11:28.024Z,18624
2017-03-16T09:12:08.912Z,17184
2017-03-16T09:12:49.798Z,17056
2017-03-16T09:13:30.680Z,16832
2017-03-16T09:14:11.565Z,17568
2017-03-16T09:14:52.453Z,18944
2017-03-16T09:15:33.339Z,22656
2017-03-16T09:16:14.226Z,28224
2017-03-16T09:16:55.105Z,39456
2017-03-16T09:17:35.991Z,48192
2017-03-16T09:18:16.897Z,58752
2017-03-16T09:18:57.769Z,59872
2017-03-16T09:19:38.663Z,54528
2017-03-16T09:20:19.562Z,56928
2017-03-16T09:21:00.455Z,57824
2017-03-16T09:21:41.347Z,61760
2017-03-16T09:22:22.235Z,61152
2017-03-16T09:23:03.123Z,58336
2017-03-16T09:23:44.030Z,56512
2017-03-16T09:24:24.926Z,54208
2017-03-16T09:25:05.815Z,52992
2017-03-16T09:25:46.712Z,51840
2017-03-16T09:26:27.637Z,52544
2017-03-16T09:27:08.538Z,53376
2017-03-16T09:27:49.437Z,55584
2017-03-16T09:28:30.343Z,57248
2017-03-16T09:29:11.238Z,55200
2017-03-16T09:29:52.134Z,54560
2017-03-16T09:30:33.034Z,54304
2017-03-16T09:31:13.927Z,55808
2017-03-16T09:31:54.846Z,58976
2017-03-16T09:32:35.751Z,60064
2017-03-16T09:33:16.655Z,61120
2017-03-16T09:33:57.553Z,62592
2017-03-16T09:34:38.453Z,63776
2017-03-16T09:35:19.354Z,62720
2017-03-16T09:36:00.277Z,68448
2017-03-16T09:36:41.174Z,68864
2017-03-16T09:37:22.096Z,68800
2017-03-16T09:38:02.974Z,66656
2017-03-16T09:38:43.873Z,59392